sensor_id;sensor_type;location;lat;lon;timestamp;P1;durP1;ratioP1;P2;durP2;ratioP2
12962;SDS011;6546;49.882;8.666;2022-10-17T00:00:56;10.13;;;4.57;;
12962;SDS011;6546;49.882;8.666;2022-10-17T00:03:23;6.43;;;4.57;;
12962;SDS011;6546;49.882;8.666;2022-10-17T00:05:50;5.97;;;4.53;;
12962;SDS011;6546;49.882;8.666;2022-10-17T00:08:17;5.80;;;3.90;;
12962;SDS011;6546;49.882;8.666;2022-10-17T00:10:44;5.17;;;3.67;;
12962;SDS011;6546;49.882;8.666;2022-10-17T00:13:11;9.87;;;4.17;;
12962;SDS011;6546;49.882;8.666;2022-10-17T00:15:43;4.57;;;4.10;;
12962;SDS011;6546;49.882;8.666;2022-10-17T00:18:10;7.10;;;3.70;;
12962;SDS011;6546;49.882;8.666;2022-10-17T00:20:37;6.83;;;4.00;;
12962;SDS011;6546;49.882;8.666;2022-10-17T00:23:04;5.30;;;4.00;;
12962;SDS011;6546;49.882;8.666;2022-10-17T00:25:30;4.47;;;3.80;;
12962;SDS011;6546;49.882;8.666;2022-10-17T00:28:00;6.30;;;4.20;;
12962;SDS011;6546;49.882;8.666;2022-10-17T00:30:28;6.57;;;3.60;;
12962;SDS011;6546;49.882;8.666;2022-10-17T00:32:58;10.20;;;4.70;;
12962;SDS011;6546;49.882;8.666;2022-10-17T00:35:26;8.03;;;4.00;;
12962;SDS011;6546;49.882;8.666;2022-10-17T00:37:52;6.03;;;4.23;;
12962;SDS011;6546;49.882;8.666;2022-10-17T00:40:20;5.53;;;3.73;;
12962;SDS011;6546;49.882;8.666;2022-10-17T00:42:47;7.57;;;3.80;;
12962;SDS011;6546;49.882;8.666;2022-10-17T00:45:18;5.23;;;4.03;;
12962;SDS011;6546;49.882;8.666;2022-10-17T00:47:48;7.30;;;4.60;;
12962;SDS011;6546;49.882;8.666;2022-10-17T00:50:20;7.23;;;4.30;;
12962;SDS011;6546;49.882;8.666;2022-10-17T00:52:48;8.87;;;4.00;;
12962;SDS011;6546;49.882;8.666;2022-10-17T00:55:17;9.47;;;3.57;;
12962;SDS011;6546;49.882;8.666;2022-10-17T00:57:47;4.67;;;4.00;;
12962;SDS011;6546;49.882;8.666;2022-10-17T01:00:15;7.17;;;3.47;;
12962;SDS011;6546;49.882;8.666;2022-10-17T01:05:37;8.10;;;3.47;;
12962;SDS011;6546;49.882;8.666;2022-10-17T01:08:04;6.63;;;3.97;;
12962;SDS011;6546;49.882;8.666;2022-10-17T01:10:34;11.47;;;4.40;;
12962;SDS011;6546;49.882;8.666;2022-10-17T01:13:09;13.20;;;4.00;;
12962;SDS011;6546;49.882;8.666;2022-10-17T01:15:43;7.57;;;4.53;;
12962;SDS011;6546;49.882;8.666;2022-10-17T01:18:25;11.83;;;5.20;;
12962;SDS011;6546;49.882;8.666;2022-10-17T01:21:14;6.50;;;4.10;;
12962;SDS011;6546;49.882;8.666;2022-10-17T01:24:09;5.00;;;3.90;;
12962;SDS011;6546;49.882;8.666;2022-10-17T01:27:05;4.23;;;3.80;;
12962;SDS011;6546;49.882;8.666;2022-10-17T01:29:52;6.27;;;4.10;;
12962;SDS011;6546;49.882;8.666;2022-10-17T01:32:32;10.23;;;4.30;;
12962;SDS011;6546;49.882;8.666;2022-10-17T01:35:06;5.83;;;4.17;;
12962;SDS011;6546;49.882;8.666;2022-10-17T01:37:38;9.67;;;4.23;;
12962;SDS011;6546;49.882;8.666;2022-10-17T01:40:09;7.37;;;4.57;;
12962;SDS011;6546;49.882;8.666;2022-10-17T01:42:41;10.03;;;4.80;;
12962;SDS011;6546;49.882;8.666;2022-10-17T01:45:15;5.47;;;4.70;;
12962;SDS011;6546;49.882;8.666;2022-10-17T01:47:49;6.93;;;4.03;;
12962;SDS011;6546;49.882;8.666;2022-10-17T01:50:18;12.10;;;4.70;;
12962;SDS011;6546;49.882;8.666;2022-10-17T01:52:49;10.67;;;4.57;;
12962;SDS011;6546;49.882;8.666;2022-10-17T01:55:19;8.47;;;4.73;;
12962;SDS011;6546;49.882;8.666;2022-10-17T01:57:49;10.43;;;4.73;;
12962;SDS011;6546;49.882;8.666;2022-10-17T02:00:19;7.47;;;4.53;;
12962;SDS011;6546;49.882;8.666;2022-10-17T02:02:50;5.80;;;4.10;;
12962;SDS011;6546;49.882;8.666;2022-10-17T02:05:23;7.80;;;3.67;;
12962;SDS011;6546;49.882;8.666;2022-10-17T02:07:54;8.87;;;4.20;;
12962;SDS011;6546;49.882;8.666;2022-10-17T02:10:21;6.03;;;3.90;;
12962;SDS011;6546;49.882;8.666;2022-10-17T02:12:56;7.00;;;4.00;;
12962;SDS011;6546;49.882;8.666;2022-10-17T02:15:45;9.40;;;3.77;;
12962;SDS011;6546;49.882;8.666;2022-10-17T02:18:31;6.63;;;4.07;;
12962;SDS011;6546;49.882;8.666;2022-10-17T02:21:13;7.63;;;4.23;;
12962;SDS011;6546;49.882;8.666;2022-10-17T02:23:46;8.70;;;3.90;;
12962;SDS011;6546;49.882;8.666;2022-10-17T02:26:19;9.63;;;4.13;;
12962;SDS011;6546;49.882;8.666;2022-10-17T02:28:51;12.37;;;4.00;;
12962;SDS011;6546;49.882;8.666;2022-10-17T02:31:30;6.80;;;4.33;;
12962;SDS011;6546;49.882;8.666;2022-10-17T02:34:05;8.13;;;4.30;;
12962;SDS011;6546;49.882;8.666;2022-10-17T02:36:37;5.93;;;3.80;;
12962;SDS011;6546;49.882;8.666;2022-10-17T02:39:07;6.60;;;3.77;;
12962;SDS011;6546;49.882;8.666;2022-10-17T02:41:35;7.70;;;4.23;;
12962;SDS011;6546;49.882;8.666;2022-10-17T02:44:05;7.57;;;4.30;;
12962;SDS011;6546;49.882;8.666;2022-10-17T02:46:33;6.80;;;4.73;;
12962;SDS011;6546;49.882;8.666;2022-10-17T02:49:06;8.27;;;4.70;;
12962;SDS011;6546;49.882;8.666;2022-10-17T02:51:39;7.67;;;4.57;;
12962;SDS011;6546;49.882;8.666;2022-10-17T02:54:11;10.37;;;4.57;;
12962;SDS011;6546;49.882;8.666;2022-10-17T02:56:45;11.20;;;4.50;;
12962;SDS011;6546;49.882;8.666;2022-10-17T02:59:16;5.63;;;4.27;;
12962;SDS011;6546;49.882;8.666;2022-10-17T03:01:46;5.07;;;4.33;;
12962;SDS011;6546;49.882;8.666;2022-10-17T03:04:17;5.80;;;4.03;;
12962;SDS011;6546;49.882;8.666;2022-10-17T03:06:45;5.80;;;4.03;;
12962;SDS011;6546;49.882;8.666;2022-10-17T03:09:12;13.83;;;4.43;;
12962;SDS011;6546;49.882;8.666;2022-10-17T03:11:39;6.50;;;4.10;;
12962;SDS011;6546;49.882;8.666;2022-10-17T03:14:05;6.17;;;4.17;;
12962;SDS011;6546;49.882;8.666;2022-10-17T03:16:32;5.00;;;4.50;;
12962;SDS011;6546;49.882;8.666;2022-10-17T03:18:59;8.70;;;4.17;;
12962;SDS011;6546;49.882;8.666;2022-10-17T03:21:26;9.47;;;4.77;;
12962;SDS011;6546;49.882;8.666;2022-10-17T03:23:53;8.90;;;4.07;;
12962;SDS011;6546;49.882;8.666;2022-10-17T03:26:19;6.93;;;3.90;;
12962;SDS011;6546;49.882;8.666;2022-10-17T03:28:46;9.30;;;3.93;;
12962;SDS011;6546;49.882;8.666;2022-10-17T03:31:13;6.03;;;4.07;;
12962;SDS011;6546;49.882;8.666;2022-10-17T03:33:42;8.27;;;4.53;;
12962;SDS011;6546;49.882;8.666;2022-10-17T03:36:09;6.37;;;4.10;;
12962;SDS011;6546;49.882;8.666;2022-10-17T03:38:39;8.50;;;4.10;;
12962;SDS011;6546;49.882;8.666;2022-10-17T03:41:06;5.17;;;3.80;;
12962;SDS011;6546;49.882;8.666;2022-10-17T03:43:33;8.50;;;4.00;;
12962;SDS011;6546;49.882;8.666;2022-10-17T03:45:59;6.27;;;4.30;;
12962;SDS011;6546;49.882;8.666;2022-10-17T03:48:27;12.40;;;4.70;;
12962;SDS011;6546;49.882;8.666;2022-10-17T03:50:57;7.17;;;4.30;;
12962;SDS011;6546;49.882;8.666;2022-10-17T03:53:24;14.83;;;4.43;;
12962;SDS011;6546;49.882;8.666;2022-10-17T03:55:52;12.40;;;4.87;;
12962;SDS011;6546;49.882;8.666;2022-10-17T03:58:19;7.00;;;4.20;;
12962;SDS011;6546;49.882;8.666;2022-10-17T04:00:45;9.37;;;4.00;;
12962;SDS011;6546;49.882;8.666;2022-10-17T04:03:12;9.03;;;4.20;;
12962;SDS011;6546;49.882;8.666;2022-10-17T04:05:39;10.90;;;4.60;;
12962;SDS011;6546;49.882;8.666;2022-10-17T04:08:05;8.87;;;4.73;;
12962;SDS011;6546;49.882;8.666;2022-10-17T04:10:32;9.77;;;4.60;;
12962;SDS011;6546;49.882;8.666;2022-10-17T04:13:00;8.97;;;5.07;;
12962;SDS011;6546;49.882;8.666;2022-10-17T04:15:26;12.30;;;4.67;;
12962;SDS011;6546;49.882;8.666;2022-10-17T04:17:53;7.70;;;4.80;;
12962;SDS011;6546;49.882;8.666;2022-10-17T04:20:19;10.73;;;5.13;;
12962;SDS011;6546;49.882;8.666;2022-10-17T04:22:46;9.30;;;5.60;;
12962;SDS011;6546;49.882;8.666;2022-10-17T04:25:12;11.77;;;5.80;;
12962;SDS011;6546;49.882;8.666;2022-10-17T04:27:39;10.00;;;6.20;;
12962;SDS011;6546;49.882;8.666;2022-10-17T04:30:07;15.83;;;8.27;;
12962;SDS011;6546;49.882;8.666;2022-10-17T04:32:35;16.47;;;8.87;;
12962;SDS011;6546;49.882;8.666;2022-10-17T04:35:03;18.77;;;10.53;;
12962;SDS011;6546;49.882;8.666;2022-10-17T04:37:30;24.73;;;12.23;;
12962;SDS011;6546;49.882;8.666;2022-10-17T04:39:57;20.60;;;11.77;;
12962;SDS011;6546;49.882;8.666;2022-10-17T04:42:23;22.57;;;11.47;;
12962;SDS011;6546;49.882;8.666;2022-10-17T04:44:50;17.73;;;11.00;;
12962;SDS011;6546;49.882;8.666;2022-10-17T04:47:18;14.43;;;8.77;;
12962;SDS011;6546;49.882;8.666;2022-10-17T04:49:44;10.40;;;7.00;;
12962;SDS011;6546;49.882;8.666;2022-10-17T04:52:11;7.10;;;5.40;;
12962;SDS011;6546;49.882;8.666;2022-10-17T04:54:37;8.63;;;5.97;;
12962;SDS011;6546;49.882;8.666;2022-10-17T04:57:04;9.07;;;5.23;;
12962;SDS011;6546;49.882;8.666;2022-10-17T04:59:30;5.37;;;4.87;;
12962;SDS011;6546;49.882;8.666;2022-10-17T05:01:57;5.63;;;5.13;;
12962;SDS011;6546;49.882;8.666;2022-10-17T05:04:25;8.57;;;5.00;;
12962;SDS011;6546;49.882;8.666;2022-10-17T05:06:52;8.40;;;5.50;;
12962;SDS011;6546;49.882;8.666;2022-10-17T05:09:18;10.10;;;5.73;;
12962;SDS011;6546;49.882;8.666;2022-10-17T05:11:45;8.97;;;4.80;;
12962;SDS011;6546;49.882;8.666;2022-10-17T05:14:11;9.07;;;5.23;;
12962;SDS011;6546;49.882;8.666;2022-10-17T05:16:38;6.20;;;5.57;;
12962;SDS011;6546;49.882;8.666;2022-10-17T05:19:05;10.40;;;5.83;;
12962;SDS011;6546;49.882;8.666;2022-10-17T05:21:33;11.63;;;5.40;;
12962;SDS011;6546;49.882;8.666;2022-10-17T05:24:03;8.53;;;5.50;;
12962;SDS011;6546;49.882;8.666;2022-10-17T05:26:30;8.20;;;5.03;;
12962;SDS011;6546;49.882;8.666;2022-10-17T05:28:58;8.67;;;5.40;;
12962;SDS011;6546;49.882;8.666;2022-10-17T05:31:26;7.50;;;5.40;;
12962;SDS011;6546;49.882;8.666;2022-10-17T05:33:54;12.17;;;6.70;;
12962;SDS011;6546;49.882;8.666;2022-10-17T05:36:20;8.83;;;6.43;;
12962;SDS011;6546;49.882;8.666;2022-10-17T05:38:49;7.83;;;5.90;;
12962;SDS011;6546;49.882;8.666;2022-10-17T05:41:16;9.13;;;6.27;;
12962;SDS011;6546;49.882;8.666;2022-10-17T05:43:43;10.77;;;6.53;;
12962;SDS011;6546;49.882;8.666;2022-10-17T05:46:10;7.03;;;5.60;;
12962;SDS011;6546;49.882;8.666;2022-10-17T05:48:36;6.90;;;5.60;;
12962;SDS011;6546;49.882;8.666;2022-10-17T05:51:04;6.90;;;5.67;;
12962;SDS011;6546;49.882;8.666;2022-10-17T05:53:34;8.17;;;5.37;;
12962;SDS011;6546;49.882;8.666;2022-10-17T05:56:04;8.57;;;5.07;;
12962;SDS011;6546;49.882;8.666;2022-10-17T05:58:33;7.47;;;4.83;;
12962;SDS011;6546;49.882;8.666;2022-10-17T06:01:00;9.30;;;5.47;;
12962;SDS011;6546;49.882;8.666;2022-10-17T06:03:29;8.17;;;5.63;;
12962;SDS011;6546;49.882;8.666;2022-10-17T06:06:01;10.00;;;6.10;;
12962;SDS011;6546;49.882;8.666;2022-10-17T06:08:29;8.13;;;5.00;;
12962;SDS011;6546;49.882;8.666;2022-10-17T06:10:56;7.60;;;5.87;;
12962;SDS011;6546;49.882;8.666;2022-10-17T06:13:24;12.33;;;6.47;;
12962;SDS011;6546;49.882;8.666;2022-10-17T06:15:51;9.53;;;5.70;;
12962;SDS011;6546;49.882;8.666;2022-10-17T06:18:17;10.50;;;5.97;;
12962;SDS011;6546;49.882;8.666;2022-10-17T06:20:44;8.40;;;5.73;;
12962;SDS011;6546;49.882;8.666;2022-10-17T06:23:10;10.57;;;6.57;;
12962;SDS011;6546;49.882;8.666;2022-10-17T06:25:37;9.40;;;5.60;;
12962;SDS011;6546;49.882;8.666;2022-10-17T06:28:03;9.97;;;6.20;;
12962;SDS011;6546;49.882;8.666;2022-10-17T06:30:31;8.93;;;5.93;;
12962;SDS011;6546;49.882;8.666;2022-10-17T06:32:58;15.27;;;6.07;;
12962;SDS011;6546;49.882;8.666;2022-10-17T06:35:25;11.87;;;5.70;;
12962;SDS011;6546;49.882;8.666;2022-10-17T06:37:51;11.97;;;6.27;;
12962;SDS011;6546;49.882;8.666;2022-10-17T06:40:18;15.70;;;6.10;;
12962;SDS011;6546;49.882;8.666;2022-10-17T06:42:44;10.97;;;6.50;;
12962;SDS011;6546;49.882;8.666;2022-10-17T06:45:12;11.17;;;6.30;;
12962;SDS011;6546;49.882;8.666;2022-10-17T06:47:40;12.00;;;6.37;;
12962;SDS011;6546;49.882;8.666;2022-10-17T06:50:07;8.67;;;5.40;;
12962;SDS011;6546;49.882;8.666;2022-10-17T06:52:34;11.03;;;6.10;;
12962;SDS011;6546;49.882;8.666;2022-10-17T06:55:00;13.80;;;5.50;;
12962;SDS011;6546;49.882;8.666;2022-10-17T06:57:27;12.30;;;5.90;;
12962;SDS011;6546;49.882;8.666;2022-10-17T06:59:53;6.00;;;5.40;;
12962;SDS011;6546;49.882;8.666;2022-10-17T07:02:21;8.23;;;5.43;;
12962;SDS011;6546;49.882;8.666;2022-10-17T07:04:50;13.20;;;5.83;;
12962;SDS011;6546;49.882;8.666;2022-10-17T07:07:16;8.57;;;6.20;;
12962;SDS011;6546;49.882;8.666;2022-10-17T07:09:43;7.13;;;5.70;;
12962;SDS011;6546;49.882;8.666;2022-10-17T07:12:09;7.80;;;5.70;;
12962;SDS011;6546;49.882;8.666;2022-10-17T07:14:36;14.90;;;6.03;;
12962;SDS011;6546;49.882;8.666;2022-10-17T07:17:03;13.97;;;6.20;;
12962;SDS011;6546;49.882;8.666;2022-10-17T07:19:30;11.83;;;6.73;;
12962;SDS011;6546;49.882;8.666;2022-10-17T07:21:57;11.23;;;7.03;;
12962;SDS011;6546;49.882;8.666;2022-10-17T07:24:24;9.97;;;6.80;;
12962;SDS011;6546;49.882;8.666;2022-10-17T07:26:51;8.73;;;6.63;;
12962;SDS011;6546;49.882;8.666;2022-10-17T07:29:17;19.27;;;7.07;;
12962;SDS011;6546;49.882;8.666;2022-10-17T07:31:44;10.63;;;7.03;;
12962;SDS011;6546;49.882;8.666;2022-10-17T07:34:13;16.10;;;8.50;;
12962;SDS011;6546;49.882;8.666;2022-10-17T07:36:39;14.90;;;7.70;;
12962;SDS011;6546;49.882;8.666;2022-10-17T07:39:07;17.23;;;7.83;;
12962;SDS011;6546;49.882;8.666;2022-10-17T07:41:34;10.37;;;7.23;;
12962;SDS011;6546;49.882;8.666;2022-10-17T07:44:00;12.97;;;7.30;;
12962;SDS011;6546;49.882;8.666;2022-10-17T07:46:27;14.50;;;7.50;;
12962;SDS011;6546;49.882;8.666;2022-10-17T07:48:53;15.37;;;7.77;;
12962;SDS011;6546;49.882;8.666;2022-10-17T07:51:20;11.27;;;6.70;;
12962;SDS011;6546;49.882;8.666;2022-10-17T07:53:47;12.10;;;7.30;;
12962;SDS011;6546;49.882;8.666;2022-10-17T07:56:15;9.53;;;7.70;;
12962;SDS011;6546;49.882;8.666;2022-10-17T07:58:41;11.40;;;8.40;;
12962;SDS011;6546;49.882;8.666;2022-10-17T08:01:08;13.13;;;8.17;;
12962;SDS011;6546;49.882;8.666;2022-10-17T08:03:38;13.07;;;7.03;;
12962;SDS011;6546;49.882;8.666;2022-10-17T08:06:05;9.73;;;7.07;;
12962;SDS011;6546;49.882;8.666;2022-10-17T08:08:32;10.33;;;7.70;;
12962;SDS011;6546;49.882;8.666;2022-10-17T08:11:00;13.30;;;7.50;;
12962;SDS011;6546;49.882;8.666;2022-10-17T08:13:29;11.67;;;7.17;;
12962;SDS011;6546;49.882;8.666;2022-10-17T08:15:57;11.20;;;7.03;;
12962;SDS011;6546;49.882;8.666;2022-10-17T08:18:24;8.43;;;6.67;;
12962;SDS011;6546;49.882;8.666;2022-10-17T08:20:51;8.93;;;7.43;;
12962;SDS011;6546;49.882;8.666;2022-10-17T08:23:18;11.57;;;6.60;;
12962;SDS011;6546;49.882;8.666;2022-10-17T08:25:44;8.83;;;6.30;;
12962;SDS011;6546;49.882;8.666;2022-10-17T08:28:11;7.63;;;5.67;;
12962;SDS011;6546;49.882;8.666;2022-10-17T08:30:38;9.57;;;5.60;;
12962;SDS011;6546;49.882;8.666;2022-10-17T08:33:05;9.57;;;6.00;;
12962;SDS011;6546;49.882;8.666;2022-10-17T08:35:31;8.67;;;6.33;;
12962;SDS011;6546;49.882;8.666;2022-10-17T08:37:58;7.43;;;5.47;;
12962;SDS011;6546;49.882;8.666;2022-10-17T08:40:26;9.63;;;5.00;;
12962;SDS011;6546;49.882;8.666;2022-10-17T08:43:04;8.17;;;4.50;;
12962;SDS011;6546;49.882;8.666;2022-10-17T08:45:44;5.90;;;4.77;;
12962;SDS011;6546;49.882;8.666;2022-10-17T08:48:16;5.60;;;4.47;;
12962;SDS011;6546;49.882;8.666;2022-10-17T08:50:46;7.20;;;4.30;;
12962;SDS011;6546;49.882;8.666;2022-10-17T08:53:16;5.53;;;4.50;;
12962;SDS011;6546;49.882;8.666;2022-10-17T08:55:47;5.63;;;5.03;;
12962;SDS011;6546;49.882;8.666;2022-10-17T08:58:16;6.33;;;5.03;;
12962;SDS011;6546;49.882;8.666;2022-10-17T09:00:46;8.20;;;5.57;;
12962;SDS011;6546;49.882;8.666;2022-10-17T09:03:22;8.93;;;4.50;;
12962;SDS011;6546;49.882;8.666;2022-10-17T09:06:07;8.00;;;4.53;;
12962;SDS011;6546;49.882;8.666;2022-10-17T09:08:41;7.10;;;4.87;;
12962;SDS011;6546;49.882;8.666;2022-10-17T09:11:15;5.83;;;4.20;;
12962;SDS011;6546;49.882;8.666;2022-10-17T09:14:02;7.85;;;4.53;;
12962;SDS011;6546;49.882;8.666;2022-10-17T09:16:46;5.00;;;4.17;;
12962;SDS011;6546;49.882;8.666;2022-10-17T09:19:22;5.70;;;4.00;;
12962;SDS011;6546;49.882;8.666;2022-10-17T09:21:52;6.37;;;4.50;;
12962;SDS011;6546;49.882;8.666;2022-10-17T09:24:23;5.47;;;3.97;;
12962;SDS011;6546;49.882;8.666;2022-10-17T09:27:00;11.33;;;4.40;;
12962;SDS011;6546;49.882;8.666;2022-10-17T09:29:28;6.83;;;3.80;;
12962;SDS011;6546;49.882;8.666;2022-10-17T09:35:18;5.37;;;3.53;;
12962;SDS011;6546;49.882;8.666;2022-10-17T09:37:45;7.77;;;3.87;;
12962;SDS011;6546;49.882;8.666;2022-10-17T09:40:15;5.67;;;3.70;;
12962;SDS011;6546;49.882;8.666;2022-10-17T09:42:46;8.83;;;4.00;;
12962;SDS011;6546;49.882;8.666;2022-10-17T09:45:16;9.13;;;3.93;;
12962;SDS011;6546;49.882;8.666;2022-10-17T09:47:49;4.87;;;3.73;;
12962;SDS011;6546;49.882;8.666;2022-10-17T09:50:24;4.83;;;3.70;;
12962;SDS011;6546;49.882;8.666;2022-10-17T09:52:53;5.00;;;3.90;;
12962;SDS011;6546;49.882;8.666;2022-10-17T09:55:24;4.57;;;3.87;;
12962;SDS011;6546;49.882;8.666;2022-10-17T09:58:00;6.07;;;3.83;;
12962;SDS011;6546;49.882;8.666;2022-10-17T10:00:28;4.50;;;3.40;;
12962;SDS011;6546;49.882;8.666;2022-10-17T10:05:56;4.47;;;4.00;;
12962;SDS011;6546;49.882;8.666;2022-10-17T10:08:25;4.37;;;3.63;;
12962;SDS011;6546;49.882;8.666;2022-10-17T10:10:58;6.27;;;3.30;;
12962;SDS011;6546;49.882;8.666;2022-10-17T10:13:27;5.70;;;3.17;;
12962;SDS011;6546;49.882;8.666;2022-10-17T10:15:54;3.97;;;3.43;;
12962;SDS011;6546;49.882;8.666;2022-10-17T10:18:38;7.00;;;3.40;;
12962;SDS011;6546;49.882;8.666;2022-10-17T10:21:08;9.97;;;3.53;;
12962;SDS011;6546;49.882;8.666;2022-10-17T10:23:36;8.50;;;3.60;;
12962;SDS011;6546;49.882;8.666;2022-10-17T10:26:09;3.47;;;3.17;;
12962;SDS011;6546;49.882;8.666;2022-10-17T10:28:51;5.93;;;3.03;;
12962;SDS011;6546;49.882;8.666;2022-10-17T10:31:25;5.03;;;3.37;;
12962;SDS011;6546;49.882;8.666;2022-10-17T10:33:54;6.33;;;2.83;;
12962;SDS011;6546;49.882;8.666;2022-10-17T10:36:23;3.23;;;2.93;;
12962;SDS011;6546;49.882;8.666;2022-10-17T10:38:51;4.70;;;3.43;;
12962;SDS011;6546;49.882;8.666;2022-10-17T10:41:20;4.63;;;3.40;;
12962;SDS011;6546;49.882;8.666;2022-10-17T10:43:47;6.93;;;3.60;;
12962;SDS011;6546;49.882;8.666;2022-10-17T10:46:17;6.60;;;3.10;;
12962;SDS011;6546;49.882;8.666;2022-10-17T10:48:49;4.90;;;3.17;;
12962;SDS011;6546;49.882;8.666;2022-10-17T10:51:18;2.87;;;2.63;;
12962;SDS011;6546;49.882;8.666;2022-10-17T10:53:50;4.30;;;2.60;;
12962;SDS011;6546;49.882;8.666;2022-10-17T10:56:21;3.57;;;3.20;;
12962;SDS011;6546;49.882;8.666;2022-10-17T10:58:53;6.70;;;3.10;;
12962;SDS011;6546;49.882;8.666;2022-10-17T11:01:26;6.53;;;3.23;;
12962;SDS011;6546;49.882;8.666;2022-10-17T11:04:05;4.13;;;3.73;;
12962;SDS011;6546;49.882;8.666;2022-10-17T11:06:45;5.33;;;3.43;;
12962;SDS011;6546;49.882;8.666;2022-10-17T11:09:22;4.77;;;3.30;;
12962;SDS011;6546;49.882;8.666;2022-10-17T11:11:56;4.53;;;3.30;;
12962;SDS011;6546;49.882;8.666;2022-10-17T11:14:31;7.63;;;3.33;;
12962;SDS011;6546;49.882;8.666;2022-10-17T11:17:06;3.20;;;2.90;;
12962;SDS011;6546;49.882;8.666;2022-10-17T11:19:40;9.43;;;3.13;;
12962;SDS011;6546;49.882;8.666;2022-10-17T11:22:11;6.40;;;3.20;;
12962;SDS011;6546;49.882;8.666;2022-10-17T11:24:45;6.47;;;3.20;;
12962;SDS011;6546;49.882;8.666;2022-10-17T11:27:21;4.37;;;2.67;;
12962;SDS011;6546;49.882;8.666;2022-10-17T11:29:48;3.67;;;3.23;;
12962;SDS011;6546;49.882;8.666;2022-10-17T11:32:16;4.50;;;2.90;;
12962;SDS011;6546;49.882;8.666;2022-10-17T11:34:49;3.97;;;3.23;;
12962;SDS011;6546;49.882;8.666;2022-10-17T11:37:19;3.47;;;3.10;;
12962;SDS011;6546;49.882;8.666;2022-10-17T11:39:50;8.53;;;3.43;;
12962;SDS011;6546;49.882;8.666;2022-10-17T11:42:20;6.03;;;2.97;;
12962;SDS011;6546;49.882;8.666;2022-10-17T11:44:51;4.60;;;4.10;;
12962;SDS011;6546;49.882;8.666;2022-10-17T11:47:30;4.10;;;3.60;;
12962;SDS011;6546;49.882;8.666;2022-10-17T11:50:03;6.27;;;3.30;;
12962;SDS011;6546;49.882;8.666;2022-10-17T11:52:41;4.77;;;3.47;;
12962;SDS011;6546;49.882;8.666;2022-10-17T11:55:14;4.93;;;3.50;;
12962;SDS011;6546;49.882;8.666;2022-10-17T11:57:49;5.23;;;3.50;;
12962;SDS011;6546;49.882;8.666;2022-10-17T12:00:24;9.33;;;5.83;;
12962;SDS011;6546;49.882;8.666;2022-10-17T12:02:59;9.67;;;4.00;;
12962;SDS011;6546;49.882;8.666;2022-10-17T12:05:33;6.20;;;3.47;;
12962;SDS011;6546;49.882;8.666;2022-10-17T12:08:09;4.43;;;3.30;;
12962;SDS011;6546;49.882;8.666;2022-10-17T12:10:44;6.27;;;3.53;;
12962;SDS011;6546;49.882;8.666;2022-10-17T12:19:18;6.00;;;2.83;;
12962;SDS011;6546;49.882;8.666;2022-10-17T12:22:01;6.53;;;3.23;;
12962;SDS011;6546;49.882;8.666;2022-10-17T12:24:34;4.60;;;2.70;;
12962;SDS011;6546;49.882;8.666;2022-10-17T12:30:15;7.03;;;3.53;;
12962;SDS011;6546;49.882;8.666;2022-10-17T12:32:52;5.43;;;3.63;;
12962;SDS011;6546;49.882;8.666;2022-10-17T12:35:25;5.87;;;3.80;;
12962;SDS011;6546;49.882;8.666;2022-10-17T12:38:13;5.10;;;3.30;;
12962;SDS011;6546;49.882;8.666;2022-10-17T12:40:51;5.00;;;3.40;;
12962;SDS011;6546;49.882;8.666;2022-10-17T12:49:23;5.80;;;3.33;;
12962;SDS011;6546;49.882;8.666;2022-10-17T12:52:16;6.53;;;3.17;;
12962;SDS011;6546;49.882;8.666;2022-10-17T12:54:46;4.87;;;3.33;;
12962;SDS011;6546;49.882;8.666;2022-10-17T12:57:18;5.60;;;3.20;;
12962;SDS011;6546;49.882;8.666;2022-10-17T12:59:49;6.80;;;3.97;;
12962;SDS011;6546;49.882;8.666;2022-10-17T13:02:18;6.47;;;4.23;;
12962;SDS011;6546;49.882;8.666;2022-10-17T13:04:47;5.03;;;3.70;;
12962;SDS011;6546;49.882;8.666;2022-10-17T13:07:17;7.43;;;3.60;;
12962;SDS011;6546;49.882;8.666;2022-10-17T13:09:46;5.37;;;3.97;;
12962;SDS011;6546;49.882;8.666;2022-10-17T13:12:14;5.80;;;3.43;;
12962;SDS011;6546;49.882;8.666;2022-10-17T13:14:45;5.10;;;3.83;;
12962;SDS011;6546;49.882;8.666;2022-10-17T13:17:21;5.13;;;3.50;;
12962;SDS011;6546;49.882;8.666;2022-10-17T13:19:50;4.87;;;3.10;;
12962;SDS011;6546;49.882;8.666;2022-10-17T13:22:17;3.80;;;3.37;;
12962;SDS011;6546;49.882;8.666;2022-10-17T13:24:46;3.97;;;3.13;;
12962;SDS011;6546;49.882;8.666;2022-10-17T13:27:26;6.57;;;3.87;;
12962;SDS011;6546;49.882;8.666;2022-10-17T13:29:55;4.33;;;3.53;;
12962;SDS011;6546;49.882;8.666;2022-10-17T13:32:25;6.33;;;3.73;;
12962;SDS011;6546;49.882;8.666;2022-10-17T13:35:03;5.77;;;3.20;;
12962;SDS011;6546;49.882;8.666;2022-10-17T13:37:32;4.97;;;3.63;;
12962;SDS011;6546;49.882;8.666;2022-10-17T13:40:00;6.20;;;3.37;;
12962;SDS011;6546;49.882;8.666;2022-10-17T13:42:27;6.63;;;3.47;;
12962;SDS011;6546;49.882;8.666;2022-10-17T13:44:56;6.03;;;3.97;;
12962;SDS011;6546;49.882;8.666;2022-10-17T13:47:26;6.43;;;5.13;;
12962;SDS011;6546;49.882;8.666;2022-10-17T13:49:54;11.47;;;9.20;;
12962;SDS011;6546;49.882;8.666;2022-10-17T13:52:22;12.10;;;9.90;;
12962;SDS011;6546;49.882;8.666;2022-10-17T13:54:51;6.20;;;5.00;;
12962;SDS011;6546;49.882;8.666;2022-10-17T13:57:18;6.70;;;3.93;;
12962;SDS011;6546;49.882;8.666;2022-10-17T13:59:49;6.10;;;4.37;;
12962;SDS011;6546;49.882;8.666;2022-10-17T14:02:18;6.40;;;3.40;;
12962;SDS011;6546;49.882;8.666;2022-10-17T14:04:48;4.07;;;3.37;;
12962;SDS011;6546;49.882;8.666;2022-10-17T14:07:25;5.07;;;3.53;;
12962;SDS011;6546;49.882;8.666;2022-10-17T14:09:56;7.73;;;4.10;;
12962;SDS011;6546;49.882;8.666;2022-10-17T14:12:22;8.33;;;3.90;;
12962;SDS011;6546;49.882;8.666;2022-10-17T14:14:49;6.40;;;3.57;;
12962;SDS011;6546;49.882;8.666;2022-10-17T14:17:20;3.87;;;3.40;;
12962;SDS011;6546;49.882;8.666;2022-10-17T14:19:52;4.90;;;3.73;;
12962;SDS011;6546;49.882;8.666;2022-10-17T14:22:24;6.23;;;3.63;;
12962;SDS011;6546;49.882;8.666;2022-10-17T14:24:53;6.83;;;3.70;;
12962;SDS011;6546;49.882;8.666;2022-10-17T14:27:24;4.50;;;4.07;;
12962;SDS011;6546;49.882;8.666;2022-10-17T14:29:53;5.23;;;4.50;;
12962;SDS011;6546;49.882;8.666;2022-10-17T14:32:25;6.07;;;4.50;;
12962;SDS011;6546;49.882;8.666;2022-10-17T14:34:54;7.33;;;4.70;;
12962;SDS011;6546;49.882;8.666;2022-10-17T14:37:30;5.50;;;3.80;;
12962;SDS011;6546;49.882;8.666;2022-10-17T14:40:01;5.57;;;3.80;;
12962;SDS011;6546;49.882;8.666;2022-10-17T14:42:29;5.37;;;3.83;;
12962;SDS011;6546;49.882;8.666;2022-10-17T14:44:57;6.03;;;3.80;;
12962;SDS011;6546;49.882;8.666;2022-10-17T14:47:31;4.60;;;3.73;;
12962;SDS011;6546;49.882;8.666;2022-10-17T14:50:03;7.93;;;3.83;;
12962;SDS011;6546;49.882;8.666;2022-10-17T14:52:32;4.10;;;3.70;;
12962;SDS011;6546;49.882;8.666;2022-10-17T14:55:10;7.93;;;4.30;;
12962;SDS011;6546;49.882;8.666;2022-10-17T14:57:45;8.83;;;4.33;;
12962;SDS011;6546;49.882;8.666;2022-10-17T15:00:12;5.97;;;3.73;;
12962;SDS011;6546;49.882;8.666;2022-10-17T15:02:40;4.73;;;3.67;;
12962;SDS011;6546;49.882;8.666;2022-10-17T15:05:08;6.03;;;4.43;;
12962;SDS011;6546;49.882;8.666;2022-10-17T15:07:35;5.30;;;4.37;;
12962;SDS011;6546;49.882;8.666;2022-10-17T15:10:02;6.60;;;3.90;;
12962;SDS011;6546;49.882;8.666;2022-10-17T15:12:30;4.57;;;3.80;;
12962;SDS011;6546;49.882;8.666;2022-10-17T15:14:56;5.90;;;5.20;;
12962;SDS011;6546;49.882;8.666;2022-10-17T15:17:26;14.23;;;9.90;;
12962;SDS011;6546;49.882;8.666;2022-10-17T15:19:55;15.77;;;11.03;;
12962;SDS011;6546;49.882;8.666;2022-10-17T15:22:24;6.93;;;6.23;;
12962;SDS011;6546;49.882;8.666;2022-10-17T15:24:51;7.93;;;4.97;;
12962;SDS011;6546;49.882;8.666;2022-10-17T15:27:18;5.17;;;3.93;;
12962;SDS011;6546;49.882;8.666;2022-10-17T15:29:47;5.63;;;4.20;;
12962;SDS011;6546;49.882;8.666;2022-10-17T15:32:14;4.73;;;4.10;;
12962;SDS011;6546;49.882;8.666;2022-10-17T15:34:41;6.30;;;4.20;;
12962;SDS011;6546;49.882;8.666;2022-10-17T15:37:13;7.27;;;4.30;;
12962;SDS011;6546;49.882;8.666;2022-10-17T15:39:43;7.10;;;4.33;;